首页
METAR-TAF:

METAR-TAF

机场 :

普羅維登西亞萊斯國際機場

Providenciales, 特克斯和凯科斯群岛

纬度: 21-46-25N, 经度: 072-15-57W, 海拔: 5米

当前天气观测

该预报发布于2小时和45分钟前的17:00 UTC
风速7节,风向
温度 30°C
湿度 66%
气压 1015 hPa
能见度10公里或以上
散云层高于1200英尺

METAR: MBPV 251700Z 08007KT 9999 SCT012 30/23 Q1015

时间: 15:45 (19:45 UTC)

预报

该预报发布于3小时和15分钟前的16:30 UTC
预报有效从25日的 18点(UTC)到 26日的 18点(UTC)
风速10节,风向东转东北,有时为20节阵风
能见度10公里或以上
散云层高于1800英尺
几率 30% :
短暂存在
从 26日的 09点(UTC)到 26日的 13点(UTC)
能見度: 8000
散云层高于1500英尺, 积雨云.
多云层高于3000英尺
阵雨

TAF: MBPV 251630Z 2518/2618 07010G20KT 9999 SCT018 PROB30 TEMPO 2609/2613 8000 SHRA SCT015CB BKN030

超过4000个机场的气象观测和天气预报(METAR&TAF报告)。

可查询的气象台以黄色和红色小点在地图上表示。

将鼠标移到小点上方,可查看气象台名称。

然后点击查看天气观测和预报。

如需切换地图:点击带黑十字的绿色按钮放大地图;点击带横线的绿色按钮缩小地图;或者点击绿色箭头查看邻近地区的地图。


METAR-TAF: